Time;durP1;ratioP1;P1;durP2;ratioP2;P2;SDS_P1;SDS_P2;PMS_P1;PMS_P2;Temp;Humidity;BMP_temperature;BMP_pressure;BME280_temperature;BME280_humidity;BME280_pressure;Samples;Min_cycle;Max_cycle;Signal;HPM_P1;HPM_P2
2022/11/23 00:01:23;;;;;;;4.20;2.90;;;;;;;7.57;84.16;99308.81;5114229;28;20195;-69
2022/11/23 00:03:52;;;;;;;3.37;2.77;;;;;;;7.58;84.54;99312.31;5114165;28;20212;-69
2022/11/23 00:06:20;;;;;;;5.77;3.23;;;;;;;7.64;83.89;99314.50;5114310;28;20212;-69
2022/11/23 00:08:47;;;;;;;2.57;2.57;;;;;;;7.60;83.78;99311.22;5114107;28;20612;-69
2022/11/23 00:11:14;;;;;;;3.40;3.03;;;;;;;7.60;84.09;99315.72;5114012;28;20193;-69
2022/11/23 00:13:41;;;;;;;4.67;3.37;;;;;;;7.65;83.53;99309.00;5114201;28;20208;-69
2022/11/23 00:16:13;;;;;;;2.80;2.60;;;;;;;7.69;83.12;99312.28;5113986;28;20268;-69
2022/11/23 00:18:39;;;;;;;5.53;4.43;;;;;;;7.66;83.54;99312.50;5114494;28;20176;-69
2022/11/23 00:21:08;;;;;;;7.53;4.00;;;;;;;7.68;83.05;99321.22;5114099;28;20193;-69
2022/11/23 00:23:35;;;;;;;2.43;2.40;;;;;;;7.75;82.65;99310.91;5114100;28;20619;-69
2022/11/23 00:26:02;;;;;;;2.80;2.80;;;;;;;7.78;81.95;99316.00;5113761;28;20192;-70
2022/11/23 00:28:29;;;;;;;3.40;3.20;;;;;;;7.78;81.80;99322.19;5114094;28;20718;-70
2022/11/23 00:30:56;;;;;;;3.17;2.97;;;;;;;7.81;82.12;99321.09;5113770;28;20181;-70
2022/11/23 00:33:23;;;;;;;2.87;2.77;;;;;;;7.88;81.40;99319.59;5095466;28;20219;-69
2022/11/23 00:36:13;;;;;;;3.20;2.40;;;;;;;7.91;81.18;99321.16;5095481;28;20193;-69
2022/11/23 00:38:40;;;;;;;3.47;3.03;;;;;;;7.94;80.45;99320.91;5095513;28;20288;-69
2022/11/23 00:41:13;;;;;;;1.83;1.83;;;;;;;7.97;80.65;99326.81;5095783;28;20619;-69
2022/11/23 00:43:41;;;;;;;7.60;2.77;;;;;;;8.00;80.71;99333.72;5095439;28;20208;-69
2022/11/23 00:46:14;;;;;;;2.97;2.20;;;;;;;8.00;80.81;99331.06;5095314;28;20197;-69
2022/11/23 00:48:46;;;;;;;6.33;2.00;;;;;;;7.91;81.46;99324.66;5114258;28;20606;-69
2022/11/23 00:51:16;;;;;;;2.33;2.23;;;;;;;7.87;82.63;99332.06;5113878;28;20277;-69
2022/11/23 00:53:42;;;;;;;2.27;2.03;;;;;;;7.83;83.13;99329.81;5095228;28;20227;-69
2022/11/23 00:56:10;;;;;;;2.27;2.13;;;;;;;7.89;82.82;99329.28;5113554;28;20177;-69
2022/11/23 00:58:39;;;;;;;2.87;2.67;;;;;;;7.86;82.73;99330.38;5113775;28;20690;-69
2022/11/23 01:01:11;;;;;;;2.17;2.17;;;;;;;7.81;83.37;99339.75;5113456;28;20185;-69
2022/11/23 01:03:50;;;;;;;2.43;2.00;;;;;;;7.77;83.18;99340.97;5113731;28;20204;-69
2022/11/23 01:06:20;;;;;;;1.93;1.83;;;;;;;7.75;83.88;99329.56;5096078;28;20329;-69
2022/11/23 01:08:51;;;;;;;2.87;2.37;;;;;;;7.76;83.82;99344.63;5099250;28;20291;-69
2022/11/23 01:11:20;;;;;;;2.07;1.90;;;;;;;7.81;83.36;99343.25;5117742;28;20260;-69
2022/11/23 01:13:47;;;;;;;3.90;2.30;;;;;;;7.82;83.76;99349.41;5117351;28;20243;-69
2022/11/23 01:16:25;;;;;;;2.80;2.43;;;;;;;7.90;83.51;99349.63;5118204;28;20189;-69
2022/11/23 01:19:04;;;;;;;10.90;2.30;;;;;;;7.84;83.24;99350.97;5117998;28;20183;-69
2022/11/23 01:21:32;;;;;;;1.50;1.50;;;;;;;7.88;83.40;99356.91;5098906;28;20288;-69
2022/11/23 01:23:59;;;;;;;3.23;2.50;;;;;;;7.87;83.53;99357.88;5117113;28;20301;-69
2022/11/23 01:26:26;;;;;;;2.33;2.00;;;;;;;7.85;83.94;99360.69;5117377;28;20213;-69
2022/11/23 01:28:55;;;;;;;1.93;1.93;;;;;;;7.81;83.71;99363.72;5099125;28;20246;-69
2022/11/23 01:31:23;;;;;;;2.67;2.63;;;;;;;7.79;84.42;99366.50;5117644;28;20267;-69
2022/11/23 01:33:58;;;;;;;2.30;2.20;;;;;;;7.85;84.12;99371.34;5117247;28;20687;-69
2022/11/23 01:36:28;;;;;;;6.13;2.03;;;;;;;7.81;83.90;99367.22;5117628;28;20184;-69
2022/11/23 01:38:57;;;;;;;5.57;2.33;;;;;;;7.84;84.02;99360.81;5117566;28;20185;-70
2022/11/23 01:41:26;;;;;;;2.07;2.03;;;;;;;7.80;85.07;99373.53;5117167;28;20272;-70
2022/11/23 01:43:53;;;;;;;2.77;1.83;;;;;;;7.78;85.32;99378.16;5098513;28;20237;-69
2022/11/23 01:46:20;;;;;;;2.30;2.20;;;;;;;7.74;85.39;99374.03;5117019;28;20633;-69
2022/11/23 01:49:04;;;;;;;4.93;1.93;;;;;;;7.74;85.38;99367.88;5098530;28;20217;-69
2022/11/23 01:51:36;;;;;;;2.47;2.37;;;;;;;7.70;85.64;99371.75;5117079;28;20260;-69
2022/11/23 01:54:12;;;;;;;2.17;1.90;;;;;;;7.74;85.49;99371.38;5116671;28;20201;-69
2022/11/23 01:56:42;;;;;;;2.73;2.70;;;;;;;7.81;85.39;99374.38;5098540;28;20267;-69
2022/11/23 01:59:15;;;;;;;2.67;2.50;;;;;;;7.75;85.09;99370.38;5081769;28;20215;-69
2022/11/23 02:01:43;;;;;;;3.13;2.87;;;;;;;7.79;85.31;99382.50;5116862;28;20671;-69
2022/11/23 02:04:14;;;;;;;2.17;2.07;;;;;;;7.80;85.12;99373.53;5098199;28;20216;-69
2022/11/23 02:06:45;;;;;;;2.30;2.17;;;;;;;7.76;85.47;99388.09;5098153;28;20242;-69
2022/11/23 02:09:13;;;;;;;3.17;2.37;;;;;;;7.78;85.29;99385.28;5098080;28;20185;-69
2022/11/23 02:11:40;;;;;;;3.80;2.13;;;;;;;7.74;84.72;99386.53;5098082;28;20197;-69
2022/11/23 02:14:10;;;;;;;5.33;2.47;;;;;;;7.70;85.12;99379.75;5116255;28;20604;-69
2022/11/23 02:16:37;;;;;;;4.43;2.70;;;;;;;7.77;84.56;99383.59;5116522;28;20551;-69
2022/11/23 02:19:13;;;;;;;2.50;2.30;;;;;;;7.72;85.06;99386.63;5115388;28;20208;-69
2022/11/23 02:21:41;;;;;;;2.00;1.90;;;;;;;7.74;84.47;99387.38;5116530;28;20224;-69
2022/11/23 02:24:19;;;;;;;3.23;3.00;;;;;;;7.78;84.22;99395.94;5097801;28;20209;-69
2022/11/23 02:26:46;;;;;;;4.43;2.00;;;;;;;7.78;83.96;99393.28;5097749;28;20207;-69
2022/11/23 02:29:17;;;;;;;2.13;2.03;;;;;;;7.75;84.08;99396.19;5097701;28;20280;-69
2022/11/23 02:31:44;;;;;;;2.40;2.20;;;;;;;7.81;83.95;99393.03;5116304;28;20248;-69
2022/11/23 02:34:10;;;;;;;2.97;2.40;;;;;;;7.80;83.79;99388.66;5097773;28;20312;-69
2022/11/23 02:36:38;;;;;;;2.57;2.13;;;;;;;7.87;83.67;99389.84;5116112;28;20214;-69
2022/11/23 02:39:16;;;;;;;2.50;2.30;;;;;;;7.85;83.40;99390.00;5116079;28;20196;-69
2022/11/23 02:41:47;;;;;;;3.53;2.80;;;;;;;7.93;83.24;99394.69;5097787;28;20677;-69
2022/11/23 02:44:22;;;;;;;2.40;2.30;;;;;;;7.94;82.86;99395.53;5115707;28;20209;-69
2022/11/23 02:46:50;;;;;;;1.43;1.43;;;;;;;8.00;82.39;99395.88;5097408;28;20196;-69
2022/11/23 02:49:17;;;;;;;3.70;1.80;;;;;;;8.06;81.97;99395.34;5115578;28;20188;-69
2022/11/23 02:51:43;;;;;;;3.43;2.17;;;;;;;8.04;81.44;99404.47;5115543;28;20181;-69
2022/11/23 02:54:09;;;;;;;2.03;1.93;;;;;;;8.04;81.93;99394.63;5097134;28;20213;-69
2022/11/23 02:56:36;;;;;;;1.90;1.80;;;;;;;8.08;81.68;99398.75;5097211;28;20220;-69
2022/11/23 02:59:03;;;;;;;2.00;1.90;;;;;;;8.05;81.71;99407.00;5115420;28;20265;-69
2022/11/23 03:01:29;;;;;;;4.90;1.90;;;;;;;8.06;81.18;99400.69;5115932;28;20223;-69
2022/11/23 03:03:56;;;;;;;2.10;2.00;;;;;;;8.10;81.40;99401.31;5115228;28;20217;-69
2022/11/23 03:06:22;;;;;;;1.87;1.77;;;;;;;8.09;81.29;99400.47;5116114;28;20643;-69
2022/11/23 03:08:49;;;;;;;1.97;1.83;;;;;;;8.15;81.02;99408.91;5115192;28;20197;-69
2022/11/23 03:11:16;;;;;;;5.37;2.47;;;;;;;8.14;81.15;99401.88;5096970;28;20667;-69
2022/11/23 03:13:43;;;;;;;2.13;2.00;;;;;;;8.18;80.63;99403.31;5096989;28;20219;-69
2022/11/23 03:16:12;;;;;;;2.80;2.67;;;;;;;8.23;80.26;99403.78;5096823;28;20204;-69
2022/11/23 03:18:39;;;;;;;2.57;2.37;;;;;;;8.25;79.93;99410.69;5096688;28;20182;-69
2022/11/23 03:21:08;;;;;;;6.37;2.23;;;;;;;8.21;80.04;99403.06;5115329;28;20681;-70
2022/11/23 03:23:36;;;;;;;3.43;1.90;;;;;;;8.31;79.71;99410.19;5096626;28;20240;-70
2022/11/23 03:26:06;;;;;;;4.00;2.90;;;;;;;8.20;79.98;99404.88;5096831;28;20262;-70
2022/11/23 03:28:46;;;;;;;4.97;1.93;;;;;;;8.26;79.89;99415.06;5096999;28;20242;-70
2022/11/23 03:31:14;;;;;;;2.13;2.00;;;;;;;8.28;79.85;99413.09;5096878;28;20606;-70
2022/11/23 03:33:40;;;;;;;4.33;2.80;;;;;;;8.26;79.75;99415.06;5096380;28;20236;-70
2022/11/23 03:36:07;;;;;;;3.03;1.83;;;;;;;8.27;80.00;99416.72;5114751;28;20209;-70
2022/11/23 03:38:39;;;;;;;7.93;2.63;;;;;;;8.23;80.13;99414.44;5096414;28;20209;-70
2022/11/23 03:41:18;;;;;;;6.90;1.93;;;;;;;8.28;80.17;99415.78;5096907;28;20280;-69
2022/11/23 03:43:50;;;;;;;10.17;2.33;;;;;;;8.30;80.58;99421.81;5096303;28;20205;-69
2022/11/23 03:46:16;;;;;;;2.30;2.20;;;;;;;8.21;81.74;99430.59;5096316;28;20185;-69
2022/11/23 03:48:43;;;;;;;6.80;2.00;;;;;;;8.16;82.37;99427.44;5114381;28;20244;-69
2022/11/23 03:51:09;;;;;;;2.27;2.20;;;;;;;8.02;83.83;99427.72;5096178;28;20193;-69
2022/11/23 03:53:36;;;;;;;2.60;2.33;;;;;;;7.97;84.07;99422.78;5096875;28;20217;-69
2022/11/23 03:56:02;;;;;;;2.00;1.90;;;;;;;7.98;84.95;99429.81;5114351;28;20190;-70
2022/11/23 03:58:33;;;;;;;2.17;2.13;;;;;;;7.99;84.59;99420.00;5096318;28;20706;-70
2022/11/23 04:01:04;;;;;;;4.53;3.00;;;;;;;7.95;85.15;99426.53;5096621;28;20596;-70
2022/11/23 04:03:30;;;;;;;2.73;2.10;;;;;;;7.91;85.94;99428.63;5095913;28;20213;-69
2022/11/23 04:06:08;;;;;;;2.50;2.40;;;;;;;7.88;85.78;99426.22;5096260;28;20566;-69
2022/11/23 04:08:53;;;;;;;5.70;3.03;;;;;;;7.87;86.22;99428.00;5114401;28;20208;-69
2022/11/23 04:11:50;;;;;;;3.10;2.97;;;;;;;7.78;86.37;99425.25;5096681;28;20217;-69
2022/11/23 04:14:17;;;;;;;4.20;2.70;;;;;;;7.70;86.90;99430.38;5095692;28;20748;-69
2022/11/23 04:16:44;;;;;;;2.90;2.80;;;;;;;7.70;86.99;99435.69;5095930;28;20221;-69
2022/11/23 04:19:10;;;;;;;7.87;2.67;;;;;;;7.70;87.18;99433.88;5095695;28;20228;-69
2022/11/23 04:21:37;;;;;;;2.63;2.60;;;;;;;7.76;87.17;99425.41;5095661;28;20193;-69
2022/11/23 04:24:04;;;;;;;4.03;2.60;;;;;;;7.71;87.41;99426.72;5095850;28;20243;-69
2022/11/23 04:26:34;;;;;;;4.57;4.03;;;;;;;7.61;87.74;99422.16;5095963;28;20282;-69
2022/11/23 04:29:00;;;;;;;3.50;3.20;;;;;;;7.67;87.47;99421.66;5095572;28;20209;-69
2022/11/23 04:31:28;;;;;;;3.77;3.63;;;;;;;7.69;87.07;99424.19;5095854;28;20589;-69
2022/11/23 04:34:06;;;;;;;3.63;3.33;;;;;;;7.74;86.72;99427.34;5095525;28;20214;-69
2022/11/23 04:36:33;;;;;;;5.60;2.93;;;;;;;7.71;86.65;99429.38;5114338;28;20166;-70
2022/11/23 04:39:00;;;;;;;12.07;3.13;;;;;;;7.75;86.58;99434.34;5096356;28;20555;-70
2022/11/23 04:41:34;;;;;;;7.73;3.07;;;;;;;7.69;86.81;99437.53;5095158;28;20224;-70
2022/11/23 04:44:03;;;;;;;6.07;3.03;;;;;;;7.70;87.22;99431.22;5095352;28;20262;-69
2022/11/23 04:46:29;;;;;;;4.13;3.73;;;;;;;7.74;86.67;99439.81;5095457;28;20189;-69
2022/11/23 04:48:58;;;;;;;4.07;3.70;;;;;;;7.71;86.60;99435.59;5095470;28;20211;-69
2022/11/23 04:51:25;;;;;;;6.67;4.60;;;;;;;7.70;86.83;99436.53;5095660;28;20662;-69
2022/11/23 04:53:53;;;;;;;5.27;3.83;;;;;;;7.73;87.02;99436.28;5095583;28;20216;-69
2022/11/23 04:56:19;;;;;;;9.50;4.60;;;;;;;7.72;86.58;99434.59;5095316;28;20211;-69
2022/11/23 04:58:46;;;;;;;4.23;3.47;;;;;;;7.72;87.02;99441.75;5095243;28;20189;-69
2022/11/23 05:01:13;;;;;;;7.47;3.93;;;;;;;7.71;87.05;99440.03;5095312;28;20288;-69
2022/11/23 05:03:59;;;;;;;6.40;3.90;;;;;;;7.66;86.74;99437.75;5114065;28;20266;-69
2022/11/23 05:06:26;;;;;;;7.63;4.70;;;;;;;7.67;87.01;99436.78;5095409;28;20595;-69
2022/11/23 05:08:53;;;;;;;6.70;3.90;;;;;;;7.64;86.57;99439.72;5095366;28;20240;-69
2022/11/23 05:11:33;;;;;;;8.37;3.80;;;;;;;7.61;86.72;99438.16;5095235;28;20184;-69
2022/11/23 05:14:01;;;;;;;6.10;3.47;;;;;;;7.64;87.31;99442.38;5095117;28;20237;-70
2022/11/23 05:16:28;;;;;;;3.87;3.67;;;;;;;7.67;86.80;99431.47;5095122;28;20226;-70
2022/11/23 05:18:55;;;;;;;3.83;3.63;;;;;;;7.63;86.92;99438.84;5095087;28;20186;-70
2022/11/23 05:21:22;;;;;;;12.07;4.30;;;;;;;7.66;87.27;99441.28;5095251;28;20205;-70
2022/11/23 05:23:48;;;;;;;3.57;3.23;;;;;;;7.66;86.62;99435.97;5095001;28;20243;-69
2022/11/23 05:26:17;;;;;;;4.97;4.13;;;;;;;7.63;87.05;99446.00;5094985;28;20196;-70
2022/11/23 05:28:43;;;;;;;9.60;4.30;;;;;;;7.63;87.15;99433.50;5095097;28;20619;-70
2022/11/23 05:31:13;;;;;;;6.20;4.60;;;;;;;7.62;86.88;99439.00;5095752;28;20279;-70
2022/11/23 05:33:41;;;;;;;7.17;3.77;;;;;;;7.61;87.54;99437.28;5094921;28;20685;-69
2022/11/23 05:36:08;;;;;;;6.50;3.37;;;;;;;7.64;86.95;99435.22;5094993;28;20236;-69
2022/11/23 05:38:39;;;;;;;3.63;3.33;;;;;;;7.65;87.18;99455.56;5094872;28;20275;-69
2022/11/23 05:41:14;;;;;;;11.30;3.23;;;;;;;7.69;87.05;99434.03;5095503;28;20189;-69
2022/11/23 05:43:42;;;;;;;3.77;3.47;;;;;;;7.67;87.19;99442.97;5094818;28;20312;-69
2022/11/23 05:46:13;;;;;;;5.03;3.30;;;;;;;7.65;87.00;99441.41;5095824;28;20521;-69
2022/11/23 05:48:40;;;;;;;10.20;3.87;;;;;;;7.65;87.38;99454.72;5094794;28;20213;-69
2022/11/23 05:51:08;;;;;;;3.73;3.43;;;;;;;7.66;86.82;99441.28;5094805;28;20276;-69
2022/11/23 05:53:39;;;;;;;7.03;3.77;;;;;;;7.66;86.52;99443.06;5096727;28;20209;-70
2022/11/23 05:56:16;;;;;;;11.63;3.50;;;;;;;7.72;86.72;99447.09;5098697;28;20231;-70
2022/11/23 05:59:10;;;;;;;5.00;4.07;;;;;;;7.73;86.82;99443.44;5113336;28;20254;-70
2022/11/23 06:01:38;;;;;;;4.27;4.13;;;;;;;7.70;86.96;99451.69;5098197;28;20213;-70
2022/11/23 06:04:07;;;;;;;7.10;4.20;;;;;;;7.67;86.36;99461.63;5098151;28;20217;-69
2022/11/23 06:06:40;;;;;;;7.30;3.73;;;;;;;7.69;86.69;99458.84;5098728;28;20705;-69
2022/11/23 06:09:07;;;;;;;13.30;3.70;;;;;;;7.63;86.68;99451.31;5116304;28;20296;-69
2022/11/23 06:11:36;;;;;;;5.47;4.97;;;;;;;7.68;87.06;99449.13;5098078;28;20245;-69
2022/11/23 06:14:08;;;;;;;6.80;4.13;;;;;;;7.68;86.93;99462.47;5097952;28;20217;-70
2022/11/23 06:16:39;;;;;;;6.90;4.10;;;;;;;7.72;85.98;99465.75;5098559;28;20185;-70
2022/11/23 06:19:18;;;;;;;6.80;3.63;;;;;;;7.65;86.07;99460.06;5098511;28;20185;-70
2022/11/23 06:21:44;;;;;;;3.03;2.73;;;;;;;7.64;86.11;99461.03;5097611;28;20201;-69
2022/11/23 06:24:17;;;;;;;5.60;3.30;;;;;;;7.72;85.62;99463.06;5097746;28;20613;-69
2022/11/23 06:26:44;;;;;;;10.20;4.07;;;;;;;7.72;85.55;99455.09;5098320;28;20287;-69
2022/11/23 06:29:10;;;;;;;4.53;3.47;;;;;;;7.73;85.62;99457.59;5097607;28;20606;-70
2022/11/23 06:31:37;;;;;;;8.53;3.60;;;;;;;7.72;85.67;99457.75;5097673;28;20189;-70
2022/11/23 06:34:03;;;;;;;9.93;3.97;;;;;;;7.71;85.98;99454.25;5097469;28;20258;-70
2022/11/23 06:36:31;;;;;;;6.97;2.80;;;;;;;7.67;85.76;99458.13;5097477;28;20222;-70
2022/11/23 06:38:58;;;;;;;15.50;3.90;;;;;;;7.71;85.24;99453.38;5115836;28;20264;-70
2022/11/23 06:41:24;;;;;;;5.43;3.43;;;;;;;7.65;85.76;99458.22;5097568;28;20189;-70
2022/11/23 06:43:57;;;;;;;3.50;3.23;;;;;;;7.70;85.69;99465.00;5097315;28;20232;-69
2022/11/23 06:46:34;;;;;;;5.47;3.37;;;;;;;7.72;85.19;99449.75;5097489;28;20276;-69
2022/11/23 06:49:00;;;;;;;5.27;3.37;;;;;;;7.64;85.03;99461.88;5098056;28;20235;-69
2022/11/23 06:51:27;;;;;;;4.03;3.00;;;;;;;7.72;84.85;99465.75;5097255;28;20193;-69
2022/11/23 06:53:53;;;;;;;8.70;3.83;;;;;;;7.70;84.95;99467.69;5097152;28;20237;-69
2022/11/23 06:56:19;;;;;;;5.43;3.60;;;;;;;7.64;85.20;99469.88;5097161;28;20276;-69
2022/11/23 06:58:46;;;;;;;3.33;3.23;;;;;;;7.70;85.39;99471.19;5097039;28;20200;-69
2022/11/23 07:01:17;;;;;;;12.57;3.40;;;;;;;7.77;85.30;99476.88;5097157;28;20189;-70
2022/11/23 07:03:52;;;;;;;8.00;3.10;;;;;;;7.74;85.13;99485.13;5096786;28;20559;-69
2022/11/23 07:06:31;;;;;;;3.93;3.73;;;;;;;7.78;84.33;99478.56;5097391;28;20189;-69
2022/11/23 07:09:03;;;;;;;8.90;3.83;;;;;;;7.72;84.19;99482.56;5096923;28;20214;-69
2022/11/23 07:11:46;;;;;;;6.20;4.00;;;;;;;7.77;84.06;99484.88;5097174;28;20704;-69
2022/11/23 07:14:14;;;;;;;4.90;4.20;;;;;;;7.78;83.90;99484.75;5115139;28;20201;-69
2022/11/23 07:16:44;;;;;;;9.70;4.37;;;;;;;7.74;84.70;99485.13;5097315;28;20603;-69
2022/11/23 07:19:12;;;;;;;5.63;2.97;;;;;;;7.71;83.84;99493.34;5097656;28;20616;-69
2022/11/23 07:21:38;;;;;;;6.43;3.73;;;;;;;7.76;84.56;99496.50;5096854;28;20235;-69
2022/11/23 07:24:05;;;;;;;8.00;3.23;;;;;;;7.72;84.67;99492.38;5114895;28;20201;-69
2022/11/23 07:26:31;;;;;;;6.20;3.30;;;;;;;7.78;84.45;99490.09;5096618;28;20284;-69
2022/11/23 07:28:57;;;;;;;8.80;3.60;;;;;;;7.79;84.92;99497.09;5096509;28;20205;-69
2022/11/23 07:31:24;;;;;;;4.83;2.83;;;;;;;7.76;84.37;99489.34;5096544;28;20280;-69
2022/11/23 07:33:52;;;;;;;3.00;2.73;;;;;;;7.69;84.79;99490.81;5114738;28;20208;-69
2022/11/23 07:36:18;;;;;;;2.60;2.50;;;;;;;7.67;85.04;99498.94;5114670;28;20264;-69
2022/11/23 07:38:45;;;;;;;6.83;2.77;;;;;;;7.69;84.99;99492.66;5096671;28;20223;-69
2022/11/23 07:41:13;;;;;;;3.80;2.60;;;;;;;7.69;84.96;99497.97;5096494;28;20188;-69
2022/11/23 07:44:00;;;;;;;4.63;3.20;;;;;;;7.74;84.67;99499.28;5100076;28;20213;-69
2022/11/23 07:46:26;;;;;;;5.47;2.63;;;;;;;7.76;84.16;99505.34;5114509;28;20276;-69
2022/11/23 07:49:00;;;;;;;4.73;2.53;;;;;;;7.86;83.65;99508.97;5114939;28;20300;-69
2022/11/23 07:51:28;;;;;;;4.17;3.10;;;;;;;7.83;83.72;99511.03;5114682;28;20184;-69
2022/11/23 07:53:54;;;;;;;8.70;2.70;;;;;;;7.91;82.93;99513.94;5114877;28;20528;-69
2022/11/23 07:56:20;;;;;;;4.50;2.43;;;;;;;7.87;82.50;99512.47;5114789;28;20187;-69
2022/11/23 07:58:47;;;;;;;6.67;3.10;;;;;;;7.86;82.46;99510.78;5114195;28;20187;-69
2022/11/23 08:01:17;;;;;;;5.97;2.83;;;;;;;7.94;82.66;99516.34;5114222;28;20192;-69
2022/11/23 08:03:44;;;;;;;3.00;2.67;;;;;;;8.00;82.86;99518.53;5114390;28;20205;-69
2022/11/23 08:06:12;;;;;;;4.60;2.70;;;;;;;8.00;82.23;99515.03;5114317;28;20181;-69
2022/11/23 08:08:38;;;;;;;3.47;2.80;;;;;;;8.02;82.22;99508.59;5114556;28;20215;-69
2022/11/23 08:11:06;;;;;;;2.90;2.47;;;;;;;8.09;81.41;99512.44;5114312;28;20200;-69
2022/11/23 08:13:36;;;;;;;5.03;2.70;;;;;;;8.07;81.16;99511.72;5113906;28;20203;-69
2022/11/23 08:16:02;;;;;;;7.30;3.03;;;;;;;8.11;81.52;99512.31;5113660;28;20170;-69
2022/11/23 08:18:29;;;;;;;2.93;2.70;;;;;;;8.12;81.38;99506.03;5114011;28;20177;-69
2022/11/23 08:20:59;;;;;;;4.83;2.20;;;;;;;8.19;81.15;99509.00;5113981;28;20197;-69
2022/11/23 08:23:26;;;;;;;4.50;2.93;;;;;;;8.19;80.42;99507.22;5113942;28;20208;-69
2022/11/23 08:25:52;;;;;;;2.80;2.60;;;;;;;8.26;79.85;99518.19;5114426;28;20666;-69
2022/11/23 08:28:19;;;;;;;4.07;2.70;;;;;;;8.32;78.66;99512.38;5113799;28;20693;-69
2022/11/23 08:30:46;;;;;;;3.83;2.43;;;;;;;8.28;78.07;99514.47;5113849;28;20199;-70
2022/11/23 08:33:13;;;;;;;9.83;2.67;;;;;;;8.35;77.23;99514.78;5113796;28;20211;-70
2022/11/23 08:35:41;;;;;;;4.80;2.37;;;;;;;8.40;75.42;99525.13;5114691;28;20193;-70
2022/11/23 08:38:09;;;;;;;5.10;2.43;;;;;;;8.52;74.67;99516.09;5114094;28;20189;-70
2022/11/23 08:40:36;;;;;;;5.60;2.30;;;;;;;8.57;73.62;99518.38;5113759;28;20191;-70
2022/11/23 08:43:04;;;;;;;9.37;2.83;;;;;;;8.54;73.42;99524.81;5113684;28;20278;-69
2022/11/23 08:45:30;;;;;;;4.70;2.20;;;;;;;8.57;73.02;99521.06;5114241;28;20230;-70
2022/11/23 08:48:01;;;;;;;6.20;2.10;;;;;;;8.65;72.32;99522.13;5114201;28;20685;-70
2022/11/23 08:50:31;;;;;;;3.67;2.30;;;;;;;8.67;71.66;99527.34;5114401;28;20266;-70
2022/11/23 08:52:58;;;;;;;5.20;2.43;;;;;;;8.70;72.93;99525.25;5113542;28;20717;-70
2022/11/23 08:55:26;;;;;;;9.00;2.77;;;;;;;8.82;72.65;99534.06;5114119;28;20173;-70
2022/11/23 08:57:59;;;;;;;13.40;3.07;;;;;;;8.89;71.68;99521.88;5113534;28;20248;-70
2022/11/23 09:00:26;;;;;;;3.07;2.17;;;;;;;8.99;71.03;99532.63;5113888;28;20260;-69
2022/11/23 09:02:53;;;;;;;7.53;2.43;;;;;;;9.06;70.62;99538.31;5114015;28;20205;-70
2022/11/23 09:05:19;;;;;;;3.80;2.07;;;;;;;9.15;69.82;99530.34;5113527;28;20185;-70
2022/11/23 09:07:46;;;;;;;2.73;2.53;;;;;;;9.20;69.63;99521.94;5113369;28;20276;-70
2022/11/23 09:10:12;;;;;;;7.57;2.00;;;;;;;9.26;nan;99528.59;5113822;28;20209;-70
2022/11/23 09:12:43;;;;;;;2.80;2.60;;;;;;;9.31;68.72;99529.91;5113552;28;20260;-70
2022/11/23 09:15:10;;;;;;;7.73;2.93;;;;;;;9.35;68.69;99523.28;5113383;28;20189;-70
2022/11/23 09:17:36;;;;;;;5.60;2.20;;;;;;;9.37;68.21;99533.84;5113498;28;20196;-69
2022/11/23 09:20:03;;;;;;;1.97;1.87;;;;;;;9.42;68.01;99534.31;5113041;28;20181;-69
2022/11/23 09:22:30;;;;;;;17.53;2.50;;;;;;;9.55;67.94;99539.41;5113674;28;20263;-69
2022/11/23 09:24:56;;;;;;;3.57;2.37;;;;;;;9.47;67.65;99532.06;5113029;28;20195;-70
2022/11/23 09:27:23;;;;;;;2.80;2.40;;;;;;;9.53;66.58;99531.56;5114049;28;20196;-69
2022/11/23 09:29:49;;;;;;;2.30;2.20;;;;;;;9.55;66.75;99542.09;5117721;28;20329;-69
2022/11/23 09:32:16;;;;;;;4.50;2.40;;;;;;;9.56;67.00;99539.31;5117231;28;20280;-69
2022/11/23 09:34:44;;;;;;;6.03;2.27;;;;;;;9.58;66.03;99536.50;5116848;28;20193;-70
2022/11/23 09:37:11;;;;;;;7.50;2.23;;;;;;;9.67;67.24;99537.50;5117173;28;20195;-70
2022/11/23 09:39:37;;;;;;;5.93;2.27;;;;;;;9.69;66.14;99544.41;5117128;28;20706;-70
2022/11/23 09:42:41;;;;;;;6.83;2.47;;;;;;;9.63;65.36;99534.28;5116912;28;20193;-70
2022/11/23 09:45:39;;;;;;;2.33;2.23;;;;;;;9.67;64.90;99538.34;5116858;28;20256;-69
2022/11/23 09:48:51;;;;;;;2.70;2.40;;;;;;;9.83;66.68;99543.22;5116813;28;20177;-69
2022/11/23 09:51:24;;;;;;;6.30;2.23;;;;;;;9.82;65.34;99549.56;5117076;28;20185;-69
2022/11/23 09:54:03;;;;;;;3.17;2.80;;;;;;;9.86;63.79;99532.22;5117003;28;20215;-69
2022/11/23 09:56:33;;;;;;;9.23;2.63;;;;;;;9.83;63.94;99555.75;5117276;28;20173;-70
2022/11/23 09:59:12;;;;;;;6.93;2.17;;;;;;;9.80;64.16;99541.66;5116981;28;20609;-70
2022/11/23 10:01:39;;;;;;;2.60;2.50;;;;;;;9.92;64.18;99552.25;5116968;28;20172;-70
2022/11/23 10:04:08;;;;;;;3.00;2.27;;;;;;;9.95;63.53;99550.16;5116468;28;20695;-69
2022/11/23 10:06:41;;;;;;;7.07;2.63;;;;;;;10.00;64.02;99558.59;5117090;28;20212;-70
2022/11/23 10:09:25;;;;;;;4.73;2.47;;;;;;;9.97;63.54;99550.03;5116913;28;20673;-70
2022/11/23 10:12:06;;;;;;;6.20;2.57;;;;;;;9.97;63.58;99545.50;5116406;28;20232;-70
2022/11/23 10:15:00;;;;;;;5.93;2.33;;;;;;;10.14;63.04;99545.84;5116402;28;20578;-69
2022/11/23 10:17:38;;;;;;;4.10;2.53;;;;;;;10.22;62.31;99551.34;5116618;28;20184;-69
2022/11/23 10:20:33;;;;;;;5.60;2.47;;;;;;;10.12;61.79;99548.66;5116768;28;20170;-69
2022/11/23 10:23:01;;;;;;;7.27;2.10;;;;;;;10.09;61.96;99540.91;5116677;28;20208;-69
2022/11/23 10:25:44;;;;;;;6.93;2.53;;;;;;;10.18;62.23;99545.44;5116100;28;20280;-69
2022/11/23 10:28:13;;;;;;;2.53;2.43;;;;;;;10.16;61.95;99546.56;5116621;28;20184;-70
2022/11/23 10:30:39;;;;;;;5.40;2.47;;;;;;;10.11;61.99;99544.28;5116282;28;20536;-69
2022/11/23 10:33:54;;;;;;;2.60;2.50;;;;;;;10.19;61.76;99535.56;5115915;28;20205;-69
2022/11/23 10:36:20;;;;;;;6.40;2.90;;;;;;;10.28;61.61;99542.81;5072016;28;20215;-69
2022/11/23 10:38:56;;;;;;;6.53;2.47;;;;;;;10.32;62.24;99541.56;5115341;28;20659;-69
2022/11/23 10:41:23;;;;;;;12.80;2.97;;;;;;;10.47;61.97;99539.34;5116124;28;20164;-69
2022/11/23 10:44:17;;;;;;;3.27;2.33;;;;;;;10.45;60.98;99535.09;5115625;28;20201;-69
2022/11/23 10:46:44;;;;;;;3.07;2.73;;;;;;;10.48;60.20;99529.47;5116015;28;20280;-69
2022/11/23 10:49:25;;;;;;;2.67;2.23;;;;;;;10.42;59.98;99525.53;5116099;28;20205;-69
2022/11/23 10:51:56;;;;;;;4.33;2.40;;;;;;;10.41;58.87;99527.34;5115852;28;20181;-69
2022/11/23 10:54:29;;;;;;;3.70;2.67;;;;;;;10.54;59.97;99528.91;5116102;28;20205;-69
2022/11/23 10:56:57;;;;;;;7.50;2.50;;;;;;;10.70;59.40;99525.66;5116136;28;20197;-69
2022/11/23 10:59:30;;;;;;;2.23;2.13;;;;;;;10.74;58.93;99527.09;5115617;28;20187;-69
2022/11/23 11:02:18;;;;;;;2.50;2.17;;;;;;;10.83;58.91;99527.06;5116019;28;20161;-69
2022/11/23 11:04:46;;;;;;;2.53;2.40;;;;;;;10.80;58.37;99530.03;5115698;28;20215;-69
2022/11/23 11:07:21;;;;;;;2.93;2.63;;;;;;;10.56;56.97;99508.19;5115587;28;20535;-69
2022/11/23 11:09:50;;;;;;;5.13;2.73;;;;;;;10.38;57.56;99508.88;5115797;28;20216;-69
2022/11/23 11:12:17;;;;;;;3.10;2.87;;;;;;;10.42;57.13;99512.97;5115516;28;20195;-69
2022/11/23 11:15:03;;;;;;;5.50;2.60;;;;;;;10.52;58.24;99512.97;5115414;28;20205;-69
2022/11/23 11:17:38;;;;;;;8.17;2.50;;;;;;;10.51;56.88;99508.63;5115863;28;20197;-69
2022/11/23 11:20:26;;;;;;;2.63;2.43;;;;;;;10.61;58.01;99511.31;5115211;28;20185;-69
2022/11/23 11:23:15;;;;;;;6.03;2.70;;;;;;;10.60;57.40;99504.25;5115512;28;20782;-69
2022/11/23 11:25:42;;;;;;;5.70;3.00;;;;;;;10.66;56.75;99495.66;5115601;28;20534;-69
2022/11/23 11:28:32;;;;;;;3.47;2.33;;;;;;;10.57;56.54;99488.47;5115488;28;20181;-69
2022/11/23 11:31:29;;;;;;;6.73;2.50;;;;;;;10.50;56.39;99485.50;5114749;28;20189;-69
2022/11/23 11:34:21;;;;;;;5.83;2.10;;;;;;;10.45;56.53;99487.75;5114973;28;20211;-69
2022/11/23 11:37:25;;;;;;;6.83;2.23;;;;;;;10.29;56.23;99479.44;5115000;28;20207;-69
2022/11/23 11:39:56;;;;;;;3.60;2.37;;;;;;;10.37;57.12;99475.09;5114898;28;20177;-69
2022/11/23 11:42:32;;;;;;;3.27;2.33;;;;;;;10.39;56.96;99477.59;5114860;28;20187;-69
2022/11/23 11:45:01;;;;;;;9.40;6.93;;;;;;;10.53;56.11;99465.63;5114880;28;20576;-69
2022/11/23 11:47:33;;;;;;;2.57;2.33;;;;;;;10.56;56.45;99457.31;5114499;28;20188;-69
2022/11/23 11:50:04;;;;;;;5.27;2.80;;;;;;;10.50;55.64;99453.38;5114946;28;20193;-69
2022/11/23 11:52:37;;;;;;;6.90;3.03;;;;;;;10.59;56.34;99459.72;5113567;28;20641;-69
2022/11/23 11:55:10;;;;;;;13.80;2.63;;;;;;;10.54;56.72;99457.47;5096834;28;20177;-69
2022/11/23 11:57:48;;;;;;;3.40;2.40;;;;;;;10.72;57.76;99457.59;5114546;28;20181;-69